Flight Track Log - Related Links

Times and Time Zones

All times are in EDT time to prevent confusion due to time zone crossing. See the SWA914 flight status page for this flight to view local times or setup timezone preferences in your user account.

Time Position Orientation Groundspeed Altitude Reporting Facility
EDT Latitude Longitude Course Direction KTS MPH feet Rate Location/Type
Sun 09:58:59 AM 27.9667 -82.5500 233° Southwest 162 186 800  Level Tampa TRACON
Sun 10:00:29 AM 27.9333 -82.6000 233° Southwest 208 239 4,500 2,718 Climbing Tampa TRACON
Sun 10:02:53 AM 28.1058 -82.6383 349° North 261 300 11,400 3,059 Climbing Jacksonville Center
Sun 10:03:53 AM 28.2039 -82.6453 356° North 313 360 14,900 3,400 Climbing Jacksonville Center
Sun 10:04:53 AM 28.3061 -82.6711 347° North 350 403 18,200 3,300 Climbing Jacksonville Center
Sun 10:05:53 AM 28.4064 -82.7203 337° Northwest 368 423 21,500 2,850 Climbing Jacksonville Center
Sun 10:06:53 AM 28.4983 -82.7933 325° Northwest 386 444 23,900 2,250 Climbing Jacksonville Center
Sun 10:07:53 AM 28.5986 -82.8642 328° Northwest 410 472 26,000 1,500 Climbing Jacksonville Center
Sun 10:08:53 AM 28.6967 -82.9353 328° Northwest 420 483 26,900 1,450 Climbing Jacksonville Center
Sun 10:09:53 AM 28.7989 -83.0133 326° Northwest 425 489 28,900 1,950 Climbing Jacksonville Center
Sun 10:10:53 AM 28.9053 -83.0942 326° Northwest 436 502 30,800 2,100 Climbing Jacksonville Center
Sun 10:11:53 AM 29.0136 -83.1633 331° Northwest 444 511 33,100 2,150 Climbing Jacksonville Center
Sun 10:12:53 AM 29.1347 -83.1992 346° North 444 511 35,100 1,450 Climbing Jacksonville Center
Sun 10:13:53 AM 29.2536 -83.2353 345° North 438 504 36,000 700 Climbing Jacksonville Center
Sun 10:14:53 AM 29.3703 -83.2714 345° North 438 504 36,500 1,100 Climbing Jacksonville Center
Sun 10:15:53 AM 29.4872 -83.3031 347° North 438 504 38,200 1,450 Climbing Jacksonville Center
Sun 10:16:53 AM 29.6081 -83.3344 347° North 433 498 39,400 900 Climbing Jacksonville Center
Sun 10:17:53 AM 29.7144 -83.3636 347° North 433 498 40,000 300 Climbing Jacksonville Center
Sun 10:18:53 AM 29.8356 -83.3978 346° North 433 498 40,000  Level Jacksonville Center
Sun 10:19:53 AM 29.9564 -83.4272 348° North 433 498 40,000  Level Jacksonville Center
Sun 10:20:53 AM 30.0772 -83.4567 348° North 433 498 40,000  Level Jacksonville Center
Sun 10:21:53 AM 30.1942 -83.4861 348° North 433 498 40,000  Level Jacksonville Center
Sun 10:22:53 AM 30.3131 -83.5206 346° North 433 498 40,000  Level Jacksonville Center
Sun 10:23:53 AM 30.4339 -83.5528 347° North 433 498 40,000  Level Jacksonville Center
Sun 10:24:53 AM 30.5528 -83.5850 347° North 433 498 40,000  Level Jacksonville Center
Sun 10:25:53 AM 30.6694 -83.6147 348° North 428 493 40,000  Level Jacksonville Center
Sun 10:26:53 AM 30.7906 -83.6472 347° North 433 498 40,000  Level Jacksonville Center
Sun 10:27:53 AM 30.9092 -83.6794 347° North 433 498 40,000  Level Jacksonville Center
Sun 10:28:53 AM 31.0322 -83.7119 347° North 433 498 40,000  Level Jacksonville Center
Sun 10:29:53 AM 31.1511 -83.7447 347° North 433 498 40,000  Level Jacksonville Center
Sun 10:30:53 AM 31.2739 -83.7797 346° North 438 504 40,000  Level Jacksonville Center
Sun 10:33:09 AM 31.5461 -83.8586 346° North 453 521 40,000  Level Atlanta Center
Sun 10:34:09 AM 31.6861 -83.8972 347° North 453 521 40,000  Level Atlanta Center
Sun 10:35:09 AM 31.8008 -83.9264 348° North 453 521 40,000  Level Atlanta Center
Sun 10:36:09 AM 31.9219 -83.9581 347° North 453 521 40,000  Level Atlanta Center
Sun 10:37:09 AM 32.0408 -83.9897 347° North 448 516 40,000  Level Atlanta Center
Sun 10:38:09 AM 32.1725 -84.0267 347° North 448 516 40,000  Level Atlanta Center
Sun 10:39:09 AM 32.2933 -84.0608 347° North 443 510 40,000  Level Atlanta Center
Sun 10:40:09 AM 32.4144 -84.0931 347° North 443 510 40,000  Level Atlanta Center
Sun 10:41:09 AM 32.5314 -84.1275 346° North 438 504 40,000  Level Atlanta Center
Sun 10:42:09 AM 32.6525 -84.1597 347° North 438 504 40,000  Level Atlanta Center
Sun 10:43:09 AM 32.7714 -84.1944 346° North 433 498 40,000  Level Atlanta Center
Sun 10:44:09 AM 32.8842 -84.2292 346° North 422 486 40,000  Level Atlanta Center
Sun 10:45:09 AM 33.0050 -84.2592 348° North 427 491 40,000  Level Atlanta Center
Sun 10:46:09 AM 33.1261 -84.2944 346° North 433 498 40,000  Level Atlanta Center
Sun 10:47:09 AM 33.2450 -84.3294 346° North 433 498 40,000  Level Atlanta Center
Sun 10:48:09 AM 33.3639 -84.3622 347° North 433 498 40,000  Level Atlanta Center
Sun 10:49:09 AM 33.4847 -84.3975 346° North 433 498 40,000  Level Atlanta Center
Sun 10:50:09 AM 33.5994 -84.4303 347° North 427 491 40,000  Level Atlanta Center
Sun 10:51:09 AM 33.7225 -84.4608 348° North 434 499 40,000  Level Atlanta Center
Sun 10:52:09 AM 33.8436 -84.4889 349° North 439 505 40,000  Level Atlanta Center
Sun 10:53:09 AM 33.9417 -84.5119 349° North 439 505 40,000  Level Atlanta Center
Sun 10:54:09 AM 34.0875 -84.5481 348° North 439 505 40,000  Level Atlanta Center
Sun 10:55:09 AM 34.2125 -84.5764 349° North 457 526 40,000  Level Atlanta Center
Sun 10:56:09 AM 34.3336 -84.6047 349° North 446 513 40,000  Level Atlanta Center
Sun 10:57:09 AM 34.4564 -84.6358 348° North 440 506 40,000  Level Atlanta Center
Sun 10:58:09 AM 34.5753 -84.6619 350° North 434 499 40,000  Level Atlanta Center
Sun 10:59:09 AM 34.6900 -84.6931 347° North 426 490 40,000 -500 Level Atlanta Center
Sun 11:00:09 AM 34.8108 -84.7244 348° North 426 490 39,000 -500 Descending Atlanta Center
Sun 11:01:09 AM 34.9317 -84.7533 349° North 436 502 39,000  Level Atlanta Center
Sun 11:02:09 AM 35.0525 -84.7847 348° North 436 502 39,000  Level Atlanta Center
Sun 11:03:09 AM 35.1733 -84.8136 349° North 436 502 39,000 -350 Level Atlanta Center
Sun 11:04:09 AM 35.2964 -84.8428 349° North 436 502 38,300 -850 Descending Atlanta Center
Sun 11:05:09 AM 35.4150 -84.8719 349° North 436 502 37,300 -950 Descending Atlanta Center
Sun 11:06:09 AM 35.5336 -84.9039 348° North 436 502 36,400 -950 Descending Atlanta Center
Sun 11:07:09 AM 35.6525 -84.9333 349° North 431 496 35,400 -900 Descending Atlanta Center
Sun 11:08:09 AM 35.7483 -84.9600 347° North 431 496 34,600 -955 Descending Atlanta Center
Sun 11:09:46 AM 35.9542 -85.0064 350° North 440 506 32,900 -1,025 Descending Indianapolis Center
Sun 11:10:47 AM 36.0750 -85.0375 348° North 429 494 31,900 -984 Descending Indianapolis Center
Sun 11:11:48 AM 36.1914 -85.0669 348° North 426 490 30,900 -934 Descending Indianapolis Center
Sun 11:12:49 AM 36.3081 -85.0964 349° North 426 490 30,000 -443 Descending Indianapolis Center
Sun 11:13:50 AM 36.4436 -85.1306 349° North 416 479 30,000 -341 Level Indianapolis Center
Sun 11:14:52 AM 36.5567 -85.1592 349° North 413 475 29,300 -780 Descending Indianapolis Center
Sun 11:15:53 AM 36.6722 -85.1506 North 419 482 28,400 -934 Descending Indianapolis Center
Sun 11:16:54 AM 36.7878 -85.1267 North 422 486 27,400 -1,377 Descending Indianapolis Center
Sun 11:17:55 AM 36.8992 -85.1053 North 408 470 25,600 -1,869 Descending Indianapolis Center
Sun 11:18:56 AM 37.0075 -85.0831 North 396 456 23,600 -2,016 Descending Indianapolis Center
Sun 11:19:57 AM 37.1206 -85.0603 North 385 443 21,500 -2,016 Descending Indianapolis Center
Sun 11:20:58 AM 37.2239 -85.0406 North 376 433 19,500 -1,854 Descending Indianapolis Center
Sun 11:22:00 AM 37.3214 -85.0203 North 359 413 17,700 -1,854 Descending Indianapolis Center
Sun 11:23:01 AM 37.4164 -85.0006 North 348 400 15,700 -1,918 Descending Indianapolis Center
Sun 11:24:02 AM 37.5083 -84.9828 North 335 386 13,800 -1,869 Descending Indianapolis Center
Sun 11:25:03 AM 37.5961 -84.9656 North 322 371 11,900 -1,574 Descending Indianapolis Center
Sun 11:26:04 AM 37.6764 -84.9836 350° North 306 352 10,600 -984 Descending Indianapolis Center
Sun 11:27:05 AM 37.7292 -85.0594 311° West 286 329 9,900 -344 Descending Indianapolis Center
Sun 11:28:06 AM 37.7883 -85.1386 313° West 304 350 9,900  Level Indianapolis Center
Sun 11:29:07 AM 37.8464 -85.2197 312° West 309 356 9,900  Level Indianapolis Center
Sun 11:30:08 AM 37.9053 -85.3008 313° West 312 359 9,900  Level Indianapolis Center
Sun 11:31:09 AM 37.9633 -85.3814 312° West 310 357 9,900 -390 Level Indianapolis Center
Sun 11:32:11 AM 38.0178 -85.4575 312° West 295 339 9,100 -1,073 Descending Indianapolis Center
Sun 11:33:12 AM 38.0683 -85.5289 312° West 275 316 7,700 -1,475 Descending Indianapolis Center
Sun 11:34:13 AM 38.1403 -85.5961 324° Northwest 278 320 6,100 -1,426 Descending Indianapolis Center
Sun 11:35:14 AM 38.2097 -85.6278 340° North 267 307 4,800 -984 Descending Indianapolis Center
Sun 11:36:15 AM 38.2797 -85.6519 345° North 265 305 4,100 -393 Descending Indianapolis Center
Sun 11:37:16 AM 38.3408 -85.6714 346° North 251 289 4,000 -197 Descending Indianapolis Center
Sun 11:38:17 AM 38.3553 -85.7250 289° West 201 231 3,700 -492 Descending Indianapolis Center
Sun 11:39:18 AM 38.3433 -85.7697 251° West 170 196 3,000 -541 Descending Indianapolis Center
Sun 11:40:19 AM 38.2939 -85.7706 181° South 175 201 2,600 -439 Descending Indianapolis Center
Sun 11:41:21 AM 38.2878 -85.7503 111° Southeast 152 175 2,100 -484 Descending Indianapolis Center

Login

Don't have an account? Register now (free) for customized features, flight alerts, and more!